Estación Meteorológica Peña el Pijo (Robertgarden) [ 06/14/24 10:50:13 CEST ]

Fecha Hora Presion(HPa) Temp (°C) Humedad % Rocio (°C) Viento ( m/s) Direccion Lluvia 1Hora(mm) Lluvia 24H(mm) LLuvia Total(mm)
2011-May-05 01:01:14 1011.500 11.2 91 9.8         90.65
2011-May-05 02:01:15 1010.900 11.1 92 9.8         90.65
2011-May-05 03:03:15 1010.500 9.9 91 8.5         90.65
2011-May-05 04:01:16 1010.400 8.6 91 7.2         90.65
2011-May-05 05:01:12 1010.200 8.1 92 6.9         90.65
2011-May-05 06:01:10 1010.200 6.6 92 5.4         90.65
2011-May-05 07:01:16 1010.500 6.4 93 5.3         90.65
2011-May-05 08:01:16 1010.800 6.8 94 5.9         90.65
2011-May-05 09:01:13 1010.600 11.3 93 10.2         90.65
2011-May-05 10:01:17 1010.600 16.7 74 12.0         90.65
2011-May-05 11:01:13 1010.700 20.4 60 12.4         90.65
2011-May-05 12:01:18 1010.400 21.8 46 9.6         90.65
2011-May-05 13:01:14 1010.400 22.6 43 9.3         90.65
2011-May-05 14:01:18 1010.100 23.9 36 7.8         90.65
2011-May-05 15:01:11 1009.800 24.6 34 7.6         90.65
2011-May-05 16:01:16 1009.300 23.4 40 9.1         90.65
2011-May-05 17:01:14 1009.200 23.8 44 10.8 1.0 E     90.65
2011-May-05 18:01:13 1009.200 21.8 50 10.9         90.65
2011-May-05 19:01:14 1009.000 21.4 48 9.9         90.65
2011-May-05 20:01:16 1009.000 18.6 55 9.3         90.65
2011-May-05 21:01:16 1009.500 16.0 64 9.2         90.65
2011-May-05 22:01:11 1010.100 13.8 72 8.8         90.65
2011-May-05 23:01:17 1010.800 11.9 80 8.6         90.65

Temperatura Máxima:24°    Temperatura Mínima:
Presión Máxima:1011.500 Hpa    Presión Mínima:1009.000 Hpa


Volver